Mountain Springs, Nevada
Current Conditions -  °F | °C
As of 5:56 AM on Saturday 25 Oct 2014 (Local Time) from KHND Reporting Station
Clear Clear  
Wind Chill: 62°   Ceiling: Unl
Heat Index: 62°   Visibility: 10mi
Dew Point: 38°   Wind: 7mph
Humidity: 41%   Direction: 190°S
Pressure: 30.04"   Gusts: NA
Location:  35.8437°N, 115.134°W
Report Text: KHND 251256Z 19006KT 10SM CLR 17/03 A3004 RMK AO2 T01660033 SLP154
Loading
Personal Weather Stations






























Interactive Weather Map
Tropical Storm Tracking
New forecast layout! Learn more

10-Day Weather Forecast

Advertisements
Track Severe Weather on mobile